Ana Sayfa
METAR-TAF:

METAR-TAF

Havaalanları :

Caracas, Venezuela

Enlem: 10-36N, Boylam: 066-59W, yükseklik: 43 m

Güncel hava durumu gözlemi

Rapor saat 05:00 UTC de 58 dakika önce yapıldı.
Sıcaklık 25°C
Nem 89%
Basınç 1013 hPa
Görüş mesafesi 10 km veya daha fazla
1600 ft yükseklikte parçalı çok bulutlu

METAR: SVMI 250500Z /////KT 9999 BKN016 25/23 Q1013 NOSIG

Saat: 01:58 (05:58 UTC)

Tahmin

Rapor saat 22:00 UTC de 7 saat ve 58 dakika önce yapıldı.
Ayın 25'si saat 00 UTC'den ayın 26'si saat 00 UTC'ye kadar geçerli Tahmin
Rüzgar kuzey/kuzeydoğudan 10 kt
Görüş mesafesi 10 km veya daha fazla
1600 ft yükseklikte parçalı çok bulutlu
Dönüşüyor
ayın 25'si saat 01 UTC'den ayın 25'si saat 05 UTC'ye kadar
Rüzgar doğudan 10 kt
Görüş mesafesi: 9000 m
1600 ft yükseklikte parçalı bulutlu
7000 ft yükseklikte parçalı bulutlu
İstasyon Civarında/ Çevresinde, çisenti

TAF: SVMI 242200Z 2500/2600 02010KT 9999 BKN016 TX35/18Z TN26/09Z BECMG 2501/2505 10010KT 9000 VCDZ SCT016 SCT070

4.000'den fazla havaalanı için hava durumu gözlemleri ve tahminleri (METAR ve TAF raporları).

Kullanılabilir istasyonlar harita üzerinde sarı ve kırmızı noktalarla gösterilir.

İstasyonun adını görmek için fareyi noktanın üzerinde gezdirin.

Sonrasında hava gözlem ve tahminlerini görmek için tıklayın.

Haritayı değiştirmek için: yaklaştırmak için siyah artı işaretli yeşil düğmeye ve uzaklaştırmak için de eksi işaretli düğmeye hızla tıklayın; bitişik haritalar için yeşil okları kullanın.


METAR-TAF: